createdAt,value
2019-06-08T00:01:22.813Z,99.90
2019-06-08T00:04:01.786Z,99.90
2019-06-08T00:06:35.863Z,99.90
2019-06-08T00:09:08.403Z,99.90
2019-06-08T00:11:41.762Z,99.90
2019-06-08T00:14:15.086Z,99.90
2019-06-08T00:16:47.748Z,99.90
2019-06-08T00:19:21.452Z,99.90
2019-06-08T00:21:55.175Z,99.90
2019-06-08T00:24:27.150Z,99.90
2019-06-08T00:26:59.015Z,99.90
2019-06-08T00:29:36.345Z,99.90
2019-06-08T00:32:09.504Z,99.90
2019-06-08T00:34:42.926Z,99.90
2019-06-08T00:37:17.187Z,99.90
2019-06-08T00:39:49.187Z,99.90
2019-06-08T00:42:23.310Z,99.90
2019-06-08T00:44:57.559Z,99.90
2019-06-08T00:47:46.628Z,99.90
2019-06-08T00:50:04.502Z,99.90
2019-06-08T00:52:37.089Z,99.90
2019-06-08T00:55:10.304Z,99.90
2019-06-08T00:57:42.853Z,99.90
2019-06-08T01:00:16.167Z,99.90
2019-06-08T01:02:48.318Z,99.90
2019-06-08T01:05:21.954Z,99.90
2019-06-08T01:07:54.977Z,99.90
2019-06-08T01:10:29.743Z,99.90
2019-06-08T01:13:04.243Z,99.90
2019-06-08T01:15:37.240Z,99.90
2019-06-08T01:18:09.487Z,99.90
2019-06-08T01:20:41.778Z,99.90
2019-06-08T01:23:13.766Z,99.90
2019-06-08T01:25:46.376Z,99.90
2019-06-08T01:28:19.891Z,99.90
2019-06-08T01:30:52.136Z,99.90
2019-06-08T01:33:24.463Z,99.90
2019-06-08T01:35:57.594Z,99.90
2019-06-08T01:38:31.421Z,99.90
2019-06-08T01:41:03.176Z,99.90
2019-06-08T01:43:35.540Z,99.90
2019-06-08T01:46:08.991Z,99.90
2019-06-08T01:48:41.137Z,99.90
2019-06-08T01:51:13.112Z,99.90
2019-06-08T01:53:45.051Z,99.90
2019-06-08T01:56:18.577Z,99.90
2019-06-08T01:58:52.066Z,99.90
2019-06-08T02:01:25.857Z,99.90
2019-06-08T02:03:59.223Z,99.90
2019-06-08T02:06:32.515Z,99.90
2019-06-08T02:09:07.611Z,99.90
2019-06-08T02:11:40.658Z,99.90
2019-06-08T02:14:14.943Z,99.90
2019-06-08T02:16:47.065Z,99.90
2019-06-08T02:19:19.075Z,99.90
2019-06-08T02:21:51.315Z,99.90
2019-06-08T02:24:24.451Z,99.90
2019-06-08T02:26:56.583Z,99.90
2019-06-08T02:29:29.985Z,99.90
2019-06-08T02:32:02.155Z,99.90
2019-06-08T02:34:38.141Z,99.90
2019-06-08T02:37:10.566Z,99.90
2019-06-08T02:39:42.796Z,99.90
2019-06-08T02:42:15.989Z,99.90
2019-06-08T02:44:48.076Z,99.90
2019-06-08T02:47:20.625Z,99.90
2019-06-08T02:49:52.493Z,99.90
2019-06-08T02:52:24.898Z,99.90
2019-06-08T02:54:57.680Z,99.90
2019-06-08T02:57:33.200Z,99.90
2019-06-08T03:00:06.153Z,99.90
2019-06-08T03:02:44.364Z,99.90
2019-06-08T03:05:16.971Z,99.90
2019-06-08T03:07:52.575Z,99.90
2019-06-08T03:10:24.619Z,99.90
2019-06-08T03:12:57.374Z,99.90
2019-06-08T03:15:34.575Z,99.90
2019-06-08T03:18:07.466Z,99.90
2019-06-08T03:20:40.206Z,99.90
2019-06-08T03:23:13.677Z,99.90
2019-06-08T03:25:53.041Z,99.90
2019-06-08T03:28:20.377Z,99.90
2019-06-08T03:30:54.692Z,99.90
2019-06-08T03:33:26.635Z,99.90
2019-06-08T03:35:59.223Z,99.90
2019-06-08T03:38:33.623Z,99.90
2019-06-08T03:41:05.737Z,99.90
2019-06-08T03:43:40.110Z,99.90
2019-06-08T03:46:11.712Z,99.90
2019-06-08T03:48:46.400Z,99.90
2019-06-08T03:51:18.090Z,99.90
2019-06-08T03:53:50.367Z,99.90
2019-06-08T03:56:22.813Z,99.90
2019-06-08T03:58:54.974Z,99.90
2019-06-08T04:01:27.360Z,99.90
2019-06-08T04:04:00.537Z,99.90
2019-06-08T04:06:33.202Z,99.90
2019-06-08T04:09:06.572Z,99.90
2019-06-08T04:11:40.184Z,99.90
2019-06-08T04:14:12.882Z,99.90
2019-06-08T04:16:46.652Z,99.90
2019-06-08T04:19:18.945Z,99.90
2019-06-08T04:21:51.140Z,99.90
2019-06-08T04:24:23.210Z,99.90
2019-06-08T04:26:55.368Z,99.90
2019-06-08T04:29:28.123Z,99.90
2019-06-08T04:32:01.142Z,99.90
2019-06-08T04:34:35.086Z,99.90
2019-06-08T04:37:07.399Z,99.90
2019-06-08T04:39:40.260Z,99.90
2019-06-08T04:42:13.781Z,99.90
2019-06-08T04:44:47.014Z,99.90
2019-06-08T04:47:19.967Z,99.90
2019-06-08T04:49:52.554Z,99.90
2019-06-08T04:52:24.774Z,99.90
2019-06-08T04:54:57.307Z,99.90
2019-06-08T04:57:29.559Z,99.90
2019-06-08T05:00:11.249Z,99.90
2019-06-08T05:02:35.700Z,99.90
2019-06-08T05:05:09.079Z,99.90
2019-06-08T05:07:41.953Z,99.90
2019-06-08T05:10:15.364Z,99.90
2019-06-08T05:12:47.844Z,99.90
2019-06-08T05:15:21.393Z,99.90
2019-06-08T05:17:54.026Z,99.90
2019-06-08T05:20:38.170Z,99.90
2019-06-08T05:23:04.281Z,99.90
2019-06-08T05:25:37.167Z,99.90
2019-06-08T05:28:09.173Z,99.90
2019-06-08T05:30:41.768Z,99.90
2019-06-08T05:33:13.996Z,99.90
2019-06-08T05:35:47.553Z,99.90
2019-06-08T05:38:20.571Z,99.90
2019-06-08T05:40:52.627Z,99.90
2019-06-08T05:43:25.323Z,99.90
2019-06-08T05:45:58.416Z,99.90
2019-06-08T05:48:30.478Z,99.90
2019-06-08T05:51:04.286Z,99.90
2019-06-08T05:53:37.080Z,99.90
2019-06-08T05:56:09.322Z,99.90
2019-06-08T05:58:41.839Z,99.90
2019-06-08T06:01:15.771Z,99.90
2019-06-08T06:03:48.727Z,99.90
2019-06-08T06:06:21.165Z,99.90
2019-06-08T06:08:53.700Z,99.90
2019-06-08T06:11:26.531Z,99.90
2019-06-08T06:13:58.559Z,99.90
2019-06-08T06:16:32.282Z,99.90
2019-06-08T06:19:05.955Z,99.90
2019-06-08T06:21:38.054Z,99.90
2019-06-08T06:24:10.791Z,99.90
2019-06-08T06:26:43.302Z,99.90
2019-06-08T06:29:15.184Z,99.90
2019-06-08T06:31:47.788Z,99.90
2019-06-08T06:34:19.993Z,99.90
2019-06-08T06:36:52.367Z,99.90
2019-06-08T06:39:24.552Z,99.90
2019-06-08T06:41:57.383Z,99.90
2019-06-08T06:44:29.264Z,99.90
2019-06-08T06:47:01.874Z,99.90
2019-06-08T06:49:34.217Z,99.90
2019-06-08T06:52:06.510Z,99.90
2019-06-08T06:54:39.063Z,99.90
2019-06-08T06:57:11.748Z,99.90
2019-06-08T06:59:45.524Z,99.90
2019-06-08T07:02:18.808Z,99.90
2019-06-08T07:04:52.601Z,99.90
2019-06-08T07:07:25.177Z,99.90
2019-06-08T07:09:57.871Z,99.90
2019-06-08T07:12:31.995Z,99.90
2019-06-08T07:15:04.298Z,99.90
2019-06-08T07:17:36.919Z,99.90
2019-06-08T07:20:10.706Z,99.90
2019-06-08T07:22:43.304Z,99.90
2019-06-08T07:25:17.444Z,99.90
2019-06-08T07:27:50.532Z,99.90
2019-06-08T07:30:23.793Z,99.90
2019-06-08T07:32:56.386Z,99.90
2019-06-08T07:35:29.372Z,99.90
2019-06-08T07:38:01.634Z,99.90
2019-06-08T07:40:34.161Z,99.90
2019-06-08T07:43:15.703Z,99.90
2019-06-08T07:45:48.076Z,99.90
2019-06-08T07:48:23.757Z,99.90
2019-06-08T07:50:58.391Z,99.90
2019-06-08T07:53:30.933Z,99.90
2019-06-08T07:56:02.966Z,99.90
2019-06-08T07:58:36.229Z,99.90
2019-06-08T08:01:08.486Z,99.90
2019-06-08T08:03:41.438Z,99.90
2019-06-08T08:06:14.001Z,99.90
2019-06-08T08:08:48.427Z,99.90
2019-06-08T08:11:20.590Z,99.90
2019-06-08T08:13:53.203Z,99.90
2019-06-08T08:16:25.500Z,99.90
2019-06-08T08:18:59.587Z,99.90
2019-06-08T08:21:32.190Z,99.90
2019-06-08T08:24:04.356Z,99.90
2019-06-08T08:26:39.195Z,99.90
2019-06-08T08:29:11.949Z,99.90
2019-06-08T08:31:44.491Z,99.90
2019-06-08T08:34:18.267Z,99.90
2019-06-08T08:36:51.073Z,98.00
2019-06-08T08:39:27.596Z,97.80
2019-06-08T08:42:04.937Z,95.50
2019-06-08T08:44:37.972Z,94.60
2019-06-08T08:47:10.266Z,91.70
2019-06-08T08:49:42.365Z,90.30
2019-06-08T08:52:17.541Z,84.60
2019-06-08T08:54:50.776Z,81.80
2019-06-08T08:57:23.356Z,81.90
2019-06-08T08:59:57.354Z,79.40
2019-06-08T09:02:30.508Z,78.50
2019-06-08T09:05:04.221Z,77.80
2019-06-08T09:07:38.498Z,76.20
2019-06-08T09:10:12.484Z,72.70
2019-06-08T09:12:44.773Z,68.70
2019-06-08T09:15:19.247Z,68.00
2019-06-08T09:17:55.761Z,68.80
2019-06-08T09:20:32.472Z,67.20
2019-06-08T09:23:12.640Z,66.70
2019-06-08T09:25:40.503Z,67.50
2019-06-08T09:28:13.859Z,67.70
2019-06-08T09:30:48.229Z,66.30
2019-06-08T09:33:25.283Z,65.00
2019-06-08T09:36:02.387Z,65.90
2019-06-08T09:38:33.842Z,63.50
2019-06-08T09:41:08.809Z,65.10
2019-06-08T09:43:40.861Z,63.70
2019-06-08T09:46:12.912Z,61.10
2019-06-08T09:48:48.662Z,61.10
2019-06-08T09:51:21.483Z,60.90
2019-06-08T09:53:55.538Z,60.80
2019-06-08T09:56:28.463Z,60.10
2019-06-08T09:59:04.049Z,61.90
2019-06-08T10:01:34.613Z,61.90
2019-06-08T10:04:09.195Z,62.10
2019-06-08T10:06:41.114Z,62.40
2019-06-08T10:09:14.619Z,57.10
2019-06-08T10:11:47.338Z,58.10
2019-06-08T10:14:19.381Z,57.30
2019-06-08T10:16:51.489Z,56.40
2019-06-08T10:19:24.069Z,56.30
2019-06-08T10:21:56.881Z,57.50
2019-06-08T10:24:28.927Z,57.60
2019-06-08T10:27:03.564Z,56.50
2019-06-08T10:29:38.321Z,56.30
2019-06-08T10:32:12.963Z,56.30
2019-06-08T10:34:44.808Z,57.10
2019-06-08T10:37:18.685Z,57.50
2019-06-08T10:39:55.779Z,57.40
2019-06-08T10:42:28.946Z,55.90
2019-06-08T10:45:05.192Z,56.00
2019-06-08T10:47:41.477Z,54.70
2019-06-08T10:50:15.841Z,54.50
2019-06-08T10:52:51.450Z,53.50
2019-06-08T10:55:27.929Z,53.80
2019-06-08T10:58:00.175Z,53.20
2019-06-08T11:00:32.574Z,51.70
2019-06-08T11:03:05.836Z,51.50
2019-06-08T11:05:38.862Z,51.80
2019-06-08T11:08:14.505Z,50.60
2019-06-08T11:10:47.392Z,50.60
2019-06-08T11:13:19.371Z,50.60
2019-06-08T11:15:51.748Z,51.40
2019-06-08T11:18:24.224Z,51.10
2019-06-08T11:21:00.767Z,52.50
2019-06-08T11:23:33.330Z,51.10
2019-06-08T11:26:17.528Z,50.30
2019-06-08T11:28:43.724Z,51.10
2019-06-08T11:31:19.453Z,50.40
2019-06-08T11:33:51.819Z,50.40
2019-06-08T11:36:24.462Z,51.10
2019-06-08T11:38:58.810Z,51.10
2019-06-08T11:41:34.830Z,50.50
2019-06-08T11:44:12.533Z,51.40
2019-06-08T11:46:47.635Z,51.00
2019-06-08T11:49:22.341Z,50.70
2019-06-08T11:51:55.034Z,49.90
2019-06-08T11:54:36.520Z,50.40
2019-06-08T11:57:04.830Z,51.20
2019-06-08T11:59:37.658Z,51.50
2019-06-08T12:02:13.924Z,52.00
2019-06-08T12:04:44.710Z,51.40
2019-06-08T12:07:17.744Z,50.80
2019-06-08T12:09:51.151Z,51.30
2019-06-08T12:12:24.707Z,49.50
2019-06-08T12:14:58.294Z,50.30
2019-06-08T12:17:30.574Z,48.00
2019-06-08T12:20:03.911Z,48.30
2019-06-08T12:22:37.675Z,49.40
2019-06-08T12:25:12.212Z,49.30
2019-06-08T12:27:44.701Z,50.10
2019-06-08T12:30:25.588Z,49.40
2019-06-08T12:32:51.714Z,49.30
2019-06-08T12:35:24.758Z,48.50
2019-06-08T12:37:58.096Z,49.50
2019-06-08T12:40:33.383Z,49.60
2019-06-08T12:43:09.607Z,49.30
2019-06-08T12:45:42.390Z,49.80
2019-06-08T12:48:19.571Z,49.10
2019-06-08T12:50:48.648Z,49.20
2019-06-08T12:53:23.180Z,48.90
2019-06-08T12:55:57.712Z,47.40
2019-06-08T12:58:29.477Z,46.90
2019-06-08T13:01:02.072Z,47.80
2019-06-08T13:03:34.184Z,46.50
2019-06-08T13:06:08.850Z,47.00
2019-06-08T13:08:41.476Z,48.00
2019-06-08T13:11:13.961Z,47.20
2019-06-08T13:13:46.063Z,47.90
2019-06-08T13:16:23.785Z,48.00
2019-06-08T13:18:51.857Z,47.70
2019-06-08T13:21:33.786Z,46.90
2019-06-08T13:23:58.401Z,45.80
2019-06-08T13:26:31.081Z,45.80
2019-06-08T13:29:03.931Z,45.90
2019-06-08T13:31:38.312Z,45.70
2019-06-08T13:34:15.667Z,45.30
2019-06-08T13:36:48.545Z,45.60
2019-06-08T13:39:23.121Z,44.90
2019-06-08T13:41:55.718Z,44.40
2019-06-08T13:44:28.097Z,45.30
2019-06-08T13:47:01.646Z,45.10
2019-06-08T13:49:33.808Z,43.80
2019-06-08T13:52:07.883Z,43.00
2019-06-08T13:54:40.224Z,44.80
2019-06-08T13:57:13.270Z,44.90
2019-06-08T13:59:49.009Z,45.10
2019-06-08T14:02:25.120Z,45.70
2019-06-08T14:04:54.019Z,44.80
2019-06-08T14:07:31.781Z,45.00
2019-06-08T14:10:02.605Z,45.10
2019-06-08T14:12:35.039Z,43.90
2019-06-08T14:15:08.562Z,45.00
2019-06-08T14:17:42.509Z,44.50
2019-06-08T14:20:19.844Z,43.50
2019-06-08T14:22:52.512Z,44.40
2019-06-08T14:25:25.828Z,44.30
2019-06-08T14:27:59.549Z,44.30
2019-06-08T14:30:33.256Z,44.60
2019-06-08T14:33:08.169Z,45.10
2019-06-08T14:35:39.776Z,45.50
2019-06-08T14:38:13.146Z,45.90
2019-06-08T14:40:47.516Z,45.40
2019-06-08T14:43:21.283Z,45.80
2019-06-08T14:45:53.557Z,44.50
2019-06-08T14:48:33.180Z,44.80
2019-06-08T14:51:01.164Z,45.00
2019-06-08T14:53:34.044Z,46.20
2019-06-08T14:56:08.901Z,45.50
2019-06-08T14:58:39.892Z,45.30
2019-06-08T15:01:12.557Z,45.50
2019-06-08T15:03:45.102Z,45.00
2019-06-08T15:06:17.820Z,43.00
2019-06-08T15:08:50.896Z,44.30
2019-06-08T15:11:23.760Z,44.10
2019-06-08T15:13:58.160Z,44.10
2019-06-08T15:16:32.694Z,44.40
2019-06-08T15:19:05.282Z,43.70
2019-06-08T15:21:38.491Z,44.10
2019-06-08T15:24:10.935Z,44.00
2019-06-08T15:26:45.291Z,43.40
2019-06-08T15:29:19.165Z,43.80
2019-06-08T15:31:51.010Z,43.80
2019-06-08T15:34:23.485Z,44.30
2019-06-08T15:36:57.571Z,44.70
2019-06-08T15:39:32.521Z,45.00
2019-06-08T15:42:03.795Z,45.00
2019-06-08T15:44:38.316Z,45.10
2019-06-08T15:47:11.096Z,44.70
2019-06-08T15:49:43.083Z,45.20
2019-06-08T15:52:17.411Z,43.70
2019-06-08T15:54:49.368Z,44.10
2019-06-08T15:57:22.970Z,45.00
2019-06-08T15:59:55.169Z,44.20
2019-06-08T16:02:27.632Z,44.80
2019-06-08T16:04:59.779Z,44.40
2019-06-08T16:07:33.990Z,44.70
2019-06-08T16:10:08.196Z,44.60
2019-06-08T16:12:41.117Z,45.60
2019-06-08T16:15:14.701Z,45.80
2019-06-08T16:17:47.296Z,46.00
2019-06-08T16:20:19.481Z,45.90
2019-06-08T16:22:52.978Z,45.50
2019-06-08T16:25:27.816Z,46.60
2019-06-08T16:28:00.436Z,45.20
2019-06-08T16:30:33.238Z,44.00
2019-06-08T16:33:05.821Z,44.40
2019-06-08T16:35:37.972Z,43.90
2019-06-08T16:38:11.571Z,45.20
2019-06-08T16:40:45.617Z,44.10
2019-06-08T16:43:21.548Z,42.60
2019-06-08T16:45:55.245Z,40.30
2019-06-08T16:48:28.073Z,38.30
2019-06-08T16:51:00.741Z,35.70
2019-06-08T16:53:34.114Z,33.50
2019-06-08T16:56:07.551Z,31.50
2019-06-08T16:58:39.585Z,29.40
2019-06-08T17:01:11.687Z,28.70
2019-06-08T17:03:47.681Z,28.00
2019-06-08T17:06:19.328Z,27.50
2019-06-08T17:08:52.483Z,26.90
2019-06-08T17:11:25.813Z,26.90
2019-06-08T17:13:58.073Z,26.40
2019-06-08T17:16:32.193Z,25.10
2019-06-08T17:19:05.609Z,24.00
2019-06-08T17:21:38.416Z,22.80
2019-06-08T17:24:10.956Z,22.20
2019-06-08T17:26:43.939Z,21.90
2019-06-08T17:29:16.616Z,21.50
2019-06-08T17:31:49.520Z,21.20
2019-06-08T17:34:22.053Z,20.80
2019-06-08T17:36:54.157Z,21.10
2019-06-08T17:39:29.319Z,21.40
2019-06-08T17:42:00.235Z,21.70
2019-06-08T17:44:32.523Z,21.90
2019-06-08T17:47:04.610Z,21.90
2019-06-08T17:49:40.682Z,21.70
2019-06-08T17:52:13.369Z,21.90
2019-06-08T17:54:46.182Z,22.70
2019-06-08T17:57:18.262Z,23.40
2019-06-08T17:59:50.431Z,24.30
2019-06-08T18:02:28.224Z,24.70
2019-06-08T18:04:57.971Z,24.80
2019-06-08T18:07:33.708Z,25.30
2019-06-08T18:10:07.198Z,26.00
2019-06-08T18:12:42.859Z,26.00
2019-06-08T18:15:17.433Z,25.90
2019-06-08T18:17:49.963Z,25.80
2019-06-08T18:20:23.398Z,26.20
2019-06-08T18:22:57.827Z,26.60
2019-06-08T18:25:30.932Z,26.50
2019-06-08T18:28:10.326Z,26.90
2019-06-08T18:30:39.704Z,27.50
2019-06-08T18:33:11.090Z,29.00
2019-06-08T18:35:45.024Z,28.90
2019-06-08T18:38:19.484Z,29.30
2019-06-08T18:40:51.599Z,29.50
2019-06-08T18:43:27.634Z,30.00
2019-06-08T18:45:59.355Z,31.70
2019-06-08T18:48:31.472Z,33.90
2019-06-08T18:51:07.627Z,36.00
2019-06-08T18:53:56.396Z,37.80
2019-06-08T18:56:14.669Z,39.50
2019-06-08T18:58:52.801Z,40.80
2019-06-08T19:01:22.889Z,42.00
2019-06-08T19:03:57.746Z,42.70
2019-06-08T19:06:30.180Z,43.70
2019-06-08T19:09:04.027Z,44.30
2019-06-08T19:11:37.687Z,45.00
2019-06-08T19:14:11.499Z,45.80
2019-06-08T19:16:46.890Z,47.10
2019-06-08T19:19:19.070Z,48.10
2019-06-08T19:21:52.001Z,48.90
2019-06-08T19:24:28.077Z,49.60
2019-06-08T19:27:00.780Z,50.20
2019-06-08T19:29:34.472Z,50.60
2019-06-08T19:32:07.719Z,50.90
2019-06-08T19:34:42.217Z,51.50
2019-06-08T19:37:17.125Z,51.80
2019-06-08T19:39:49.370Z,52.30
2019-06-08T19:42:35.547Z,52.50
2019-06-08T19:45:04.950Z,53.00
2019-06-08T19:47:31.630Z,53.60
2019-06-08T19:50:04.364Z,54.30
2019-06-08T19:52:40.640Z,54.70
2019-06-08T19:55:11.733Z,55.30
2019-06-08T19:57:46.090Z,55.60
2019-06-08T20:00:19.670Z,56.00
2019-06-08T20:02:55.062Z,56.60
2019-06-08T20:05:28.502Z,57.10
2019-06-08T20:08:00.963Z,57.30
2019-06-08T20:10:33.463Z,57.60
2019-06-08T20:13:07.860Z,57.80
2019-06-08T20:15:47.293Z,57.80
2019-06-08T20:18:17.248Z,58.10
2019-06-08T20:20:52.737Z,59.40
2019-06-08T20:23:23.797Z,60.20
2019-06-08T20:25:57.340Z,60.90
2019-06-08T20:28:32.822Z,61.50
2019-06-08T20:31:07.413Z,62.60
2019-06-08T20:33:40.017Z,64.00
2019-06-08T20:36:12.749Z,65.40
2019-06-08T20:38:46.249Z,67.90
2019-06-08T20:41:19.692Z,70.30
2019-06-08T20:43:53.663Z,73.40
2019-06-08T20:46:28.652Z,77.60
2019-06-08T20:49:02.954Z,83.70
2019-06-08T20:51:37.303Z,89.10
2019-06-08T20:54:08.776Z,93.30
2019-06-08T20:56:42.982Z,96.50
2019-06-08T20:59:28.824Z,99.50
2019-06-08T21:01:52.188Z,99.90
2019-06-08T21:04:23.907Z,99.90
2019-06-08T21:06:57.371Z,99.90
2019-06-08T21:09:29.855Z,99.90
2019-06-08T21:12:02.481Z,99.90
2019-06-08T21:14:37.958Z,99.90
2019-06-08T21:17:10.215Z,99.90
2019-06-08T21:19:42.847Z,99.90
2019-06-08T21:22:15.487Z,99.90
2019-06-08T21:24:50.457Z,99.90
2019-06-08T21:27:22.463Z,99.90
2019-06-08T21:30:02.106Z,99.90
2019-06-08T21:32:30.758Z,99.90
2019-06-08T21:35:03.684Z,99.90
2019-06-08T21:37:37.726Z,99.90
2019-06-08T21:40:09.905Z,99.90
2019-06-08T21:42:43.591Z,99.90
2019-06-08T21:45:18.699Z,99.90
2019-06-08T21:47:51.349Z,99.90
2019-06-08T21:50:23.645Z,99.90
2019-06-08T21:52:59.077Z,99.90
2019-06-08T21:55:30.487Z,99.90
2019-06-08T21:58:03.185Z,99.90
2019-06-08T22:00:42.725Z,99.90
2019-06-08T22:03:11.827Z,99.90
2019-06-08T22:05:47.175Z,99.90
2019-06-08T22:08:20.427Z,99.90
2019-06-08T22:10:54.271Z,99.90
2019-06-08T22:13:28.303Z,99.90
2019-06-08T22:16:01.982Z,99.90
2019-06-08T22:18:34.331Z,99.90
2019-06-08T22:21:08.141Z,99.90
2019-06-08T22:23:41.013Z,99.90
2019-06-08T22:26:13.735Z,99.90
2019-06-08T22:28:48.050Z,99.90
2019-06-08T22:31:23.186Z,99.90
2019-06-08T22:33:58.762Z,99.90
2019-06-08T22:36:33.037Z,99.90
2019-06-08T22:39:08.241Z,99.90
2019-06-08T22:41:42.604Z,99.90
2019-06-08T22:44:14.887Z,99.90
2019-06-08T22:46:47.891Z,99.90
2019-06-08T22:49:20.712Z,99.90
2019-06-08T22:51:53.859Z,99.90
2019-06-08T22:54:27.586Z,99.90
2019-06-08T22:57:01.833Z,99.90
2019-06-08T22:59:37.034Z,99.90
2019-06-08T23:02:09.236Z,99.90
2019-06-08T23:04:41.458Z,99.90
2019-06-08T23:07:25.767Z,99.90
2019-06-08T23:09:47.983Z,99.90
2019-06-08T23:12:21.409Z,99.90
2019-06-08T23:14:54.391Z,99.90
2019-06-08T23:17:28.044Z,99.90
2019-06-08T23:20:02.041Z,99.90
2019-06-08T23:22:34.904Z,99.90
2019-06-08T23:25:09.620Z,99.90
2019-06-08T23:27:42.056Z,99.90
2019-06-08T23:30:18.270Z,99.90
2019-06-08T23:32:49.776Z,99.90
2019-06-08T23:35:22.905Z,99.90
2019-06-08T23:37:56.851Z,99.90
2019-06-08T23:40:29.471Z,99.90
2019-06-08T23:43:03.027Z,99.90
2019-06-08T23:45:38.011Z,99.90
2019-06-08T23:48:10.746Z,99.90
2019-06-08T23:50:43.140Z,99.90
2019-06-08T23:53:18.030Z,99.90
2019-06-08T23:55:49.651Z,99.90
2019-06-08T23:58:21.844Z,99.90
